首页
METAR-TAF:

METAR-TAF

机场 :

特雷維索, 意大利

纬度: 45-39N, 经度: 012-11E, 海拔: 18米

当前天气观测

该预报发布于23分钟前的06:50 UTC
风速3节,风向东北,在东转东北之间变化
温度 17°C
湿度 100%
气压 1018 hPa
能見度: 0500
多云层高于200英尺

METAR: LIPH 200650Z 04003KT 350V070 0500 R07/P1500N FG BKN002 17/17 Q1018

时间: 09:13 (07:13 UTC)

预报

该预报发布于2小时和13分钟前的05:00 UTC
预报有效从20日的 06点(UTC)到 21日的 06点(UTC)
风速5节,风向多变
能見度: 5000
散云层高于2000英尺
轻雾
短暂存在
从 20日的 06点(UTC)到 20日的 07点(UTC)
能見度: 1200
多云层高于200英尺
碎片雾
成为
从 20日的 08点(UTC)到 20日的 10点(UTC)
能見度: 8000
成为
从 20日的 21点(UTC)到 20日的 23点(UTC)
能見度: 4000
轻雾

TAF: LIPH 200500Z 2006/2106 VRB05KT 5000 BR SCT020 TEMPO 2006/2007 1200 BCFG BKN002 BECMG 2008/2010 8000 BECMG 2021/2023 4000 BR

超过4000个机场的气象观测和天气预报(METAR&TAF报告)。

可查询的气象台以黄色和红色小点在地图上表示。

将鼠标移到小点上方,可查看气象台名称。

然后点击查看天气观测和预报。

如需切换地图:点击带黑十字的绿色按钮放大地图;点击带横线的绿色按钮缩小地图;或者点击绿色箭头查看邻近地区的地图。


METAR-TAF: